sim
Sign-in with your pilot id or email,
or register
Callsign
Passwort

Schedule Details

Flight Number: DLH2428 (1)
Departure: Munich Airport (EDDM) at 08:40
Arrival: Gothenburg Landvetter Airport (ESGG) at 10:35
Route: Lufthansa Passenger Schedule. Enter filed route here before submitting Pirep.

Weather Information
Getting current METAR information for EDDM 201920Z 35001KT CAVOK 13/11 Q1016 NOSIG
Getting current METAR information for ESGG 201920Z 22007KT 9999 BKN007 11/10 Q1020

Schedule Frequency

Route Map